Time;durP1;ratioP1;P1;durP2;ratioP2;P2;SDS_P1;SDS_P2;PMS_P1;PMS_P2;Temp;Humidity;BMP_temperature;BMP_pressure;BME280_temperature;BME280_humidity;BME280_pressure;Samples;Min_cycle;Max_cycle;Signal;HPM_P1;HPM_P2
2023/09/18 00:00:30;;;;;;;30.50;15.38;;;;;;;9.67;72.95;100542.81;4926656;29;20138;-76
2023/09/18 00:02:56;;;;;;;24.13;15.35;;;;;;;9.43;72.77;100497.63;4929764;29;20279;-76
2023/09/18 00:05:22;;;;;;;25.50;14.65;;;;;;;9.65;73.18;100541.09;4931536;29;20082;-76
2023/09/18 00:07:48;;;;;;;22.70;13.23;;;;;;;9.59;72.81;100534.97;4945488;28;20044;-76
2023/09/18 00:10:14;;;;;;;24.88;13.32;;;;;;;9.67;73.05;100543.72;4937521;29;20039;-75
2023/09/18 00:12:40;;;;;;;21.83;13.40;;;;;;;9.67;73.03;100542.81;4930291;29;20075;-75
2023/09/18 00:15:08;;;;;;;24.52;12.93;;;;;;;9.43;73.13;100514.09;4931650;29;20048;-73
2023/09/18 00:17:35;;;;;;;22.02;12.30;;;;;;;9.70;73.28;100543.72;4944188;28;20138;-73
2023/09/18 00:20:03;;;;;;;21.38;12.65;;;;;;;9.41;73.22;100499.34;4915211;29;20046;-74
2023/09/18 00:22:31;;;;;;;20.88;12.80;;;;;;;9.71;73.52;100549.78;4931812;29;20039;-74
2023/09/18 00:24:57;;;;;;;20.88;13.18;;;;;;;9.70;73.51;100548.94;4930544;29;20044;-74
2023/09/18 00:27:23;;;;;;;23.95;13.93;;;;;;;9.52;73.58;100513.28;4930578;29;20050;-73
2023/09/18 00:29:49;;;;;;;22.63;13.43;;;;;;;9.49;73.32;100505.47;4945718;28;20130;-74
2023/09/18 00:32:15;;;;;;;20.17;12.30;;;;;;;9.68;73.65;100534.16;4941422;28;20051;-74
2023/09/18 00:34:41;;;;;;;24.02;12.43;;;;;;;9.69;73.19;100536.78;4931562;29;20039;-74
2023/09/18 00:37:07;;;;;;;21.88;12.68;;;;;;;9.74;73.46;100542.00;4931223;29;20071;-75
2023/09/18 00:39:33;;;;;;;19.90;12.52;;;;;;;9.65;73.96;100509.91;4946093;28;20054;-75
2023/09/18 00:41:59;;;;;;;19.50;12.52;;;;;;;9.87;73.78;100536.00;4944738;28;20043;-75
2023/09/18 00:44:28;;;;;;;17.92;11.77;;;;;;;9.93;73.83;100543.88;4932096;29;20142;-75
2023/09/18 00:46:57;;;;;;;23.15;12.25;;;;;;;10.03;73.96;100543.94;4927983;29;20047;-74
2023/09/18 00:49:24;;;;;;;20.40;11.52;;;;;;;9.73;73.75;100480.50;4944756;28;20039;-75
2023/09/18 00:51:51;;;;;;;17.27;11.25;;;;;;;9.97;73.93;100510.94;4930072;29;20097;-75
2023/09/18 00:54:19;;;;;;;22.67;11.63;;;;;;;10.13;74.13;100543.09;4945932;28;20059;-74
2023/09/18 00:56:48;;;;;;;19.67;11.35;;;;;;;10.04;74.08;100522.25;4944975;28;20082;-76
2023/09/18 00:59:14;;;;;;;21.45;11.43;;;;;;;10.20;74.08;100536.19;4943027;28;20514;-75
2023/09/18 01:01:42;;;;;;;18.40;11.40;;;;;;;10.25;73.71;100544.88;4912850;29;20060;-75
2023/09/18 01:04:09;;;;;;;17.63;11.00;;;;;;;10.16;74.23;100516.22;4913521;29;20047;-75
2023/09/18 01:06:36;;;;;;;17.05;11.45;;;;;;;10.24;74.13;100507.63;4928286;29;20035;-76
2023/09/18 01:09:11;;;;;;;15.98;10.35;;;;;;;10.32;73.85;100514.56;4945027;28;20074;-74
2023/09/18 01:11:53;;;;;;;20.67;10.82;;;;;;;10.46;73.71;100520.72;4943477;28;20106;-73
2023/09/18 01:14:44;;;;;;;19.80;10.50;;;;;;;10.60;74.08;100525.94;4943518;28;20040;-73
2023/09/18 01:17:13;;;;;;;16.33;9.55;;;;;;;10.68;73.91;100523.38;4928004;29;20292;-73
2023/09/18 01:19:47;;;;;;;15.52;10.27;;;;;;;10.60;73.71;100497.31;4944631;28;20047;-73
2023/09/18 01:22:19;;;;;;;16.67;10.68;;;;;;;10.75;74.04;100524.25;4925905;29;20044;-72
2023/09/18 01:24:47;;;;;;;;;;;;;;;10.76;73.68;100507.78;4941089;28;20530;-73
2023/09/18 01:27:16;;;;;;;18.33;10.35;;;;;;;10.76;73.97;100511.22;4942839;28;21252;-73
2023/09/18 01:29:44;;;;;;;17.38;10.20;;;;;;;10.43;73.70;100436.56;4930237;29;20046;-72
2023/09/18 01:32:10;;;;;;;15.65;9.65;;;;;;;10.52;73.29;100447.84;4944882;28;20069;-72
2023/09/18 01:34:51;;;;;;;14.55;9.00;;;;;;;10.88;73.47;100501.72;4927658;29;20410;-72
2023/09/18 01:37:21;;;;;;;14.45;9.60;;;;;;;10.89;73.49;100499.09;4922016;29;20079;-72
2023/09/18 01:39:49;;;;;;;16.65;9.77;;;;;;;10.42;73.42;100420.09;4944159;28;20102;-73
2023/09/18 01:42:16;;;;;;;16.05;9.00;;;;;;;10.83;73.10;100488.66;4943767;28;20514;-73
2023/09/18 01:44:43;;;;;;;13.10;9.07;;;;;;;10.92;73.26;100501.72;4927807;29;20087;-71
2023/09/18 01:47:14;;;;;;;15.35;9.38;;;;;;;10.91;73.31;100483.50;4943631;28;20070;-72
2023/09/18 01:49:40;;;;;;;16.80;9.77;;;;;;;10.98;73.33;100495.63;4932169;29;20047;-73
2023/09/18 01:52:09;;;;;;;16.80;9.82;;;;;;;11.00;73.51;100493.91;4943955;28;20043;-74
2023/09/18 01:54:36;;;;;;;15.73;9.45;;;;;;;10.93;73.59;100474.81;4943320;28;20047;-73
2023/09/18 01:57:04;;;;;;;14.27;9.07;;;;;;;11.03;73.37;100493.91;4939656;28;20040;-73
2023/09/18 01:59:31;;;;;;;14.45;9.93;;;;;;;11.00;73.05;100481.75;4919821;29;20164;-74
2023/09/18 02:01:57;;;;;;;14.60;9.23;;;;;;;11.11;72.86;100489.59;4927757;29;20182;-73
2023/09/18 02:04:23;;;;;;;16.92;10.30;;;;;;;11.17;72.95;100491.31;4928293;29;20142;-73
2023/09/18 02:06:50;;;;;;;13.50;9.23;;;;;;;10.99;72.77;100458.31;4927844;29;20555;-74
2023/09/18 02:09:17;;;;;;;11.55;8.50;;;;;;;11.22;72.66;100489.56;4944027;28;20050;-75
2023/09/18 02:11:46;;;;;;;15.77;8.73;;;;;;;11.14;72.80;100462.66;4929421;29;20108;-74
2023/09/18 02:14:14;;;;;;;13.40;9.02;;;;;;;11.11;72.82;100460.94;4926860;29;20423;-73
2023/09/18 02:16:42;;;;;;;15.20;8.52;;;;;;;11.11;72.37;100467.84;4940663;28;20048;-74
2023/09/18 02:19:09;;;;;;;20.42;9.10;;;;;;;11.06;72.56;100469.59;4927941;29;20383;-75
2023/09/18 02:21:37;;;;;;;17.05;9.05;;;;;;;11.05;72.64;100471.34;4943776;28;20051;-76
2023/09/18 02:24:06;;;;;;;18.30;9.40;;;;;;;10.98;72.51;100467.00;4923259;29;20036;-75
2023/09/18 02:26:33;;;;;;;18.02;9.93;;;;;;;10.95;72.19;100461.78;4942045;28;20567;-76
2023/09/18 02:29:02;;;;;;;16.02;10.05;;;;;;;10.78;72.45;100447.03;4928283;29;20039;-75
2023/09/18 02:31:30;;;;;;;;;;;;;;;10.87;72.04;100473.94;4944203;28;20043;-75
2023/09/18 02:33:56;;;;;;;19.00;9.63;;;;;;;10.76;72.21;100450.50;4929105;29;19923;-77
2023/09/18 02:36:22;;;;;;;15.82;9.07;;;;;;;10.83;72.20;100466.13;4926619;29;20130;-75
2023/09/18 02:38:50;;;;;;;16.65;9.70;;;;;;;10.74;72.37;100450.50;4924388;29;20043;-75
2023/09/18 02:41:16;;;;;;;18.70;9.25;;;;;;;10.65;72.38;100425.31;4943907;28;20039;-77
2023/09/18 02:43:43;;;;;;;15.90;9.32;;;;;;;10.79;72.48;100456.56;4927614;29;20503;-75
2023/09/18 02:46:09;;;;;;;13.27;9.18;;;;;;;10.82;72.50;100464.38;4942738;28;20039;-75
2023/09/18 02:48:36;;;;;;;12.20;8.48;;;;;;;10.68;72.55;100448.75;4943079;28;20048;-76
2023/09/18 02:51:02;;;;;;;14.48;8.75;;;;;;;10.48;72.40;100406.22;4943045;28;20044;-75
2023/09/18 02:53:30;;;;;;;14.13;8.18;;;;;;;10.80;72.43;100450.50;4942836;28;20442;-75
2023/09/18 02:55:59;;;;;;;14.63;8.55;;;;;;;10.85;72.32;100448.78;4895375;29;20474;-76
2023/09/18 02:58:29;;;;;;;14.82;8.77;;;;;;;10.91;72.21;100439.25;4934458;29;20039;-76
2023/09/18 03:00:59;;;;;;;15.85;9.25;;;;;;;10.98;72.53;100440.94;4940906;28;20040;-77
2023/09/18 03:03:27;;;;;;;16.48;9.32;;;;;;;11.06;72.71;100436.63;4943414;28;20070;-75
2023/09/18 03:06:02;;;;;;;15.52;8.85;;;;;;;11.11;72.24;100431.41;4928527;29;20044;-75
2023/09/18 03:08:28;;;;;;;17.17;9.00;;;;;;;11.13;72.04;100419.25;4939299;28;20418;-75
2023/09/18 03:10:55;;;;;;;12.70;8.18;;;;;;;11.18;72.53;100408.81;4926179;29;20429;-75
2023/09/18 03:13:23;;;;;;;13.25;8.55;;;;;;;11.27;72.12;100414.88;4940421;28;20055;-75
2023/09/18 03:15:49;;;;;;;15.02;8.25;;;;;;;11.50;72.54;100444.38;4926169;29;20047;-75
2023/09/18 03:18:16;;;;;;;13.30;8.48;;;;;;;11.14;71.92;100390.56;4926168;29;20032;-75
2023/09/18 03:20:43;;;;;;;19.35;8.75;;;;;;;11.45;72.07;100420.94;4940390;28;20498;-75
2023/09/18 03:23:09;;;;;;;16.58;8.68;;;;;;;11.59;72.13;100440.00;4926654;29;20061;-75
2023/09/18 03:25:39;;;;;;;15.65;8.50;;;;;;;11.60;71.79;100446.06;4941433;28;20035;-74
2023/09/18 03:28:05;;;;;;;13.75;8.07;;;;;;;11.62;71.83;100438.25;4923804;29;20035;-75
2023/09/18 03:30:33;;;;;;;13.07;8.15;;;;;;;11.53;71.63;100418.28;4911803;29;20053;-76
2023/09/18 03:33:00;;;;;;;11.55;7.65;;;;;;;11.38;71.55;100373.16;4928297;29;20043;-75
2023/09/18 03:35:29;;;;;;;15.07;7.30;;;;;;;11.73;71.49;100421.69;4939990;28;20062;-74
2023/09/18 03:37:55;;;;;;;13.85;7.57;;;;;;;11.68;71.43;100406.97;4925386;29;20137;-75
2023/09/18 03:40:22;;;;;;;13.85;7.38;;;;;;;11.87;71.40;100436.41;4925431;29;20047;-75
2023/09/18 03:42:48;;;;;;;10.77;7.25;;;;;;;11.57;71.62;100387.00;4905128;29;20039;-75
2023/09/18 03:45:18;;;;;;;12.20;7.65;;;;;;;11.94;71.36;100439.84;4926116;29;20048;-76
2023/09/18 03:47:45;;;;;;;14.73;6.97;;;;;;;11.88;71.17;100433.81;4939927;28;20046;-76
2023/09/18 03:50:13;;;;;;;12.25;7.07;;;;;;;12.05;71.13;100452.00;4942375;28;20043;-76
2023/09/18 03:52:39;;;;;;;19.42;6.90;;;;;;;12.11;71.26;100461.56;4925632;29;20293;-75
2023/09/18 03:55:08;;;;;;;14.27;8.18;;;;;;;12.03;71.10;100439.88;4940480;28;20048;-76
2023/09/18 03:57:36;;;;;;;15.38;7.03;;;;;;;12.29;70.99;100464.97;4919383;29;20130;-74
2023/09/18 04:00:07;;;;;;;11.65;7.05;;;;;;;12.20;70.80;100435.41;4907605;29;20134;-76
2023/09/18 04:02:39;;;;;;;12.63;6.40;;;;;;;12.28;70.36;100434.53;4927709;29;20563;-77
2023/09/18 04:05:07;;;;;;;10.90;6.80;;;;;;;12.32;70.14;100442.31;4923956;29;20043;-76
2023/09/18 04:07:34;;;;;;;11.73;7.03;;;;;;;12.48;70.19;100458.75;4923318;29;20486;-77
2023/09/18 04:10:03;;;;;;;14.13;7.43;;;;;;;12.38;70.04;100430.09;4942301;28;20043;-76
2023/09/18 04:12:33;;;;;;;12.65;7.35;;;;;;;12.61;70.01;100451.72;4942105;28;20418;-76
2023/09/18 04:15:00;;;;;;;11.05;7.18;;;;;;;12.67;70.00;100450.78;4942649;28;20142;-76
2023/09/18 04:17:26;;;;;;;11.18;6.43;;;;;;;12.61;69.72;100427.34;4926243;29;20044;-76
2023/09/18 04:19:52;;;;;;;14.27;7.38;;;;;;;12.55;69.86;100415.19;4942731;28;20130;-77
2023/09/18 04:22:18;;;;;;;10.93;7.15;;;;;;;12.53;68.95;100406.50;4942614;28;20047;-76
2023/09/18 04:24:44;;;;;;;19.33;7.22;;;;;;;12.73;69.44;100427.25;4925692;29;20399;-77
2023/09/18 04:27:11;;;;;;;11.07;6.43;;;;;;;12.65;69.56;100389.88;4919268;29;20038;-77
2023/09/18 04:29:37;;;;;;;9.48;6.60;;;;;;;12.63;69.17;100374.25;4942663;28;20047;-76
2023/09/18 04:32:05;;;;;;;8.73;5.68;;;;;;;13.13;69.39;100428.63;4927973;29;20051;-77
2023/09/18 04:34:32;;;;;;;8.77;5.93;;;;;;;13.36;68.81;100440.59;4940774;28;20046;-77
2023/09/18 04:36:58;;;;;;;10.40;6.20;;;;;;;13.46;68.80;100444.91;4926745;29;20525;-77
2023/09/18 04:39:24;;;;;;;13.48;6.30;;;;;;;13.50;68.66;100444.00;4941907;28;20074;-76
2023/09/18 04:41:51;;;;;;;7.97;5.85;;;;;;;13.50;68.26;100438.78;4903823;29;20043;-76
2023/09/18 04:44:17;;;;;;;10.40;6.43;;;;;;;13.61;68.11;100443.88;4924048;29;20055;-77
2023/09/18 04:46:44;;;;;;;11.05;6.45;;;;;;;13.65;67.95;100445.59;4920191;29;20046;-75
2023/09/18 04:49:12;;;;;;;9.82;5.90;;;;;;;13.70;67.92;100435.06;4945589;28;20218;-77
2023/09/18 04:51:39;;;;;;;15.73;6.32;;;;;;;13.70;67.24;100430.69;4943279;28;20063;-76
2023/09/18 04:54:06;;;;;;;9.00;6.10;;;;;;;13.74;67.74;100433.28;4924969;29;20047;-76
2023/09/18 04:56:33;;;;;;;12.90;6.28;;;;;;;13.73;67.46;100416.72;4933110;29;20148;-75
2023/09/18 04:59:00;;;;;;;8.30;5.50;;;;;;;14.00;67.47;100422.50;4913223;29;20047;-77
2023/09/18 05:01:29;;;;;;;18.65;5.75;;;;;;;13.96;67.17;100395.50;4924180;29;20043;-76
2023/09/18 05:03:56;;;;;;;9.27;5.88;;;;;;;14.16;66.81;100410.94;4924312;29;20035;-76
2023/09/18 05:06:22;;;;;;;9.45;5.50;;;;;;;14.09;66.66;100398.81;4941135;28;20043;-76
2023/09/18 05:08:48;;;;;;;12.02;5.30;;;;;;;14.29;66.51;100416.88;4945597;28;20537;-76
2023/09/18 05:11:14;;;;;;;11.30;5.68;;;;;;;14.49;66.73;100422.66;4932221;29;20071;-75
2023/09/18 05:13:40;;;;;;;9.98;5.75;;;;;;;14.68;66.33;100418.91;4930257;29;20059;-75
2023/09/18 05:16:06;;;;;;;12.38;6.05;;;;;;;14.65;65.29;100384.03;4943596;28;20050;-75
2023/09/18 05:18:32;;;;;;;11.95;5.97;;;;;;;14.70;65.52;100377.00;4930425;29;20043;-74
2023/09/18 05:20:58;;;;;;;10.90;5.53;;;;;;;14.97;65.06;100407.09;4930746;28;20052;-77
2023/09/18 05:23:24;;;;;;;10.13;5.90;;;;;;;15.25;65.53;100409.22;4930214;29;20051;-75
2023/09/18 05:25:51;;;;;;;13.15;6.20;;;;;;;15.39;64.69;100392.34;4943337;28;20056;-75
2023/09/18 05:28:17;;;;;;;13.32;5.10;;;;;;;15.58;64.15;100396.31;4916307;29;20038;-75
2023/09/18 05:30:43;;;;;;;11.27;5.35;;;;;;;15.27;63.88;100352.38;4929611;29;20157;-74
2023/09/18 05:33:09;;;;;;;9.40;6.00;;;;;;;15.50;63.43;100385.16;4926461;29;20578;-76
2023/09/18 05:35:36;;;;;;;12.43;5.78;;;;;;;15.66;63.03;100390.94;4929447;29;20048;-76
2023/09/18 05:38:04;;;;;;;10.52;5.70;;;;;;;15.51;62.88;100371.16;4941021;28;20087;-76
2023/09/18 05:40:31;;;;;;;8.55;5.88;;;;;;;15.55;62.64;100380.69;4943810;28;20142;-73
2023/09/18 05:42:58;;;;;;;10.32;5.28;;;;;;;15.79;62.45;100392.41;4934495;28;20040;-72
2023/09/18 05:45:24;;;;;;;10.95;5.38;;;;;;;16.06;62.45;100398.00;4941236;28;20043;-76
2023/09/18 05:47:53;;;;;;;13.32;5.72;;;;;;;17.30;62.79;100423.06;4933529;29;20086;-76
2023/09/18 05:50:20;;;;;;;16.35;6.35;;;;;;;18.60;62.07;100413.13;4922219;29;20043;-75
2023/09/18 05:52:51;;;;;;;9.48;6.05;;;;;;;19.96;60.45;100412.84;4927857;29;20055;-75
2023/09/18 05:55:17;;;;;;;9.13;5.60;;;;;;;20.89;58.07;100359.78;4928842;29;20138;-75
2023/09/18 05:57:45;;;;;;;18.40;6.00;;;;;;;21.78;54.93;100366.44;4918317;29;20103;-75
2023/09/18 06:00:12;;;;;;;11.15;6.18;;;;;;;22.59;52.71;100373.25;4922759;29;20071;-74
2023/09/18 06:02:40;;;;;;;12.15;6.63;;;;;;;23.34;50.93;100371.16;4941438;28;20129;-76
2023/09/18 06:05:11;;;;;;;12.40;6.65;;;;;;;24.12;48.56;100401.53;4943209;28;20043;-75
2023/09/18 06:07:37;;;;;;;16.10;6.60;;;;;;;24.31;46.79;100365.00;4909236;29;20051;-74
2023/09/18 06:10:04;;;;;;;15.40;7.03;;;;;;;25.09;45.83;100381.75;4943868;28;20194;-73
2023/09/18 06:12:31;;;;;;;12.88;6.30;;;;;;;25.87;44.51;100369.88;4928442;29;20114;-75
2023/09/18 06:14:57;;;;;;;9.15;6.88;;;;;;;26.79;42.30;100382.59;4928879;29;20035;-76
2023/09/18 06:17:24;;;;;;;9.75;6.70;;;;;;;27.64;39.49;100374.06;4927691;29;20036;-75
2023/09/18 06:19:50;;;;;;;14.68;6.95;;;;;;;27.93;38.24;100350.56;4927559;29;20055;-77
2023/09/18 06:22:17;;;;;;;19.13;7.43;;;;;;;28.30;37.36;100351.53;4921792;29;20032;-76
2023/09/18 06:24:43;;;;;;;10.23;6.50;;;;;;;28.85;36.51;100366.09;4942621;28;20043;-76
2023/09/18 06:27:11;;;;;;;12.30;7.00;;;;;;;29.63;35.36;100364.56;4941852;28;20040;-74
2023/09/18 06:29:41;;;;;;;10.70;6.57;;;;;;;30.02;34.39;100330.13;4942681;28;20052;-76
2023/09/18 06:32:07;;;;;;;11.98;6.57;;;;;;;30.72;32.93;100364.63;4928051;29;20050;-75
2023/09/18 06:34:33;;;;;;;12.95;6.60;;;;;;;31.38;31.83;100379.59;4941346;28;20107;-76
2023/09/18 06:36:59;;;;;;;8.10;6.50;;;;;;;31.72;31.32;100351.56;4942953;28;20047;-76
2023/09/18 06:39:26;;;;;;;8.20;6.18;;;;;;;32.29;30.49;100366.09;4941605;28;20478;-75
2023/09/18 06:41:52;;;;;;;10.82;6.70;;;;;;;32.57;29.92;100333.06;4927228;29;20035;-72
2023/09/18 06:44:19;;;;;;;9.30;5.80;;;;;;;33.55;28.57;100361.56;4942903;28;20059;-74
2023/09/18 06:46:45;;;;;;;8.45;5.70;;;;;;;33.50;27.79;100353.94;4940355;28;20086;-76
2023/09/18 06:49:11;;;;;;;9.57;6.20;;;;;;;33.54;27.30;100352.66;4906805;29;20052;-74
2023/09/18 06:51:37;;;;;;;10.27;6.10;;;;;;;34.35;26.82;100342.00;4929384;29;20047;-75
2023/09/18 06:54:03;;;;;;;8.52;5.30;;;;;;;34.40;26.32;100355.91;4927463;29;20046;-75
2023/09/18 06:56:29;;;;;;;9.32;5.97;;;;;;;34.48;25.88;100341.66;4928305;29;20391;-75
2023/09/18 06:58:56;;;;;;;9.20;6.82;;;;;;;34.83;25.22;100353.38;4944154;28;20115;-74
2023/09/18 07:01:24;;;;;;;9.50;6.65;;;;;;;35.35;24.89;100360.63;4942920;28;20055;-75
2023/09/18 07:04:01;;;;;;;9.13;6.88;;;;;;;36.17;24.35;100341.09;4929766;29;20036;-73
2023/09/18 07:06:35;;;;;;;12.95;6.80;;;;;;;36.63;23.89;100318.91;4923715;29;20043;-74
2023/09/18 07:09:07;;;;;;;13.60;6.15;;;;;;;37.47;22.45;100349.38;4926624;29;20043;-74
2023/09/18 07:11:34;;;;;;;8.23;6.80;;;;;;;38.17;21.92;100344.91;4943050;28;20048;-74
2023/09/18 07:14:02;;;;;;;13.02;5.68;;;;;;;38.96;21.23;100351.00;4926838;29;20060;-78
2023/09/18 07:16:28;;;;;;;9.13;6.40;;;;;;;39.74;19.98;100345.91;4939263;28;20515;-75
2023/09/18 07:18:54;;;;;;;15.05;7.10;;;;;;;40.73;19.87;100338.06;4920809;29;20044;-77
2023/09/18 07:21:20;;;;;;;11.85;5.93;;;;;;;41.65;18.73;100329.72;4927014;29;20190;-76
2023/09/18 07:23:47;;;;;;;10.30;6.15;;;;;;;42.08;18.01;100293.03;4940486;28;20473;-74
2023/09/18 07:26:13;;;;;;;8.50;6.50;;;;;;;41.44;17.66;100338.88;4924525;29;20056;-74
2023/09/18 07:28:40;;;;;;;11.60;6.90;;;;;;;40.04;18.05;100361.38;4943036;28;20042;-74
2023/09/18 07:31:07;;;;;;;15.70;7.78;;;;;;;39.03;19.45;100365.53;4927569;29;20502;-74
2023/09/18 07:33:35;;;;;;;16.83;8.50;;;;;;;38.05;19.72;100341.75;4926401;29;20134;-75
2023/09/18 07:36:03;;;;;;;10.50;6.43;;;;;;;37.85;19.90;100368.50;4939879;28;20105;-73
2023/09/18 07:38:33;;;;;;;12.40;6.78;;;;;;;37.63;19.74;100343.00;4906166;29;20529;-74
2023/09/18 07:41:00;;;;;;;10.93;7.28;;;;;;;36.54;20.00;100313.69;4922565;29;20047;-76
2023/09/18 07:43:27;;;;;;;20.13;10.95;;;;;;;35.45;20.91;100322.66;4923763;29;20040;-76
2023/09/18 07:45:56;;;;;;;10.30;7.00;;;;;;;34.43;22.14;100315.13;4927644;29;20043;-76
2023/09/18 07:48:25;;;;;;;8.73;6.82;;;;;;;33.46;22.71;100312.97;4923792;29;20415;-77
2023/09/18 07:50:54;;;;;;;10.60;6.40;;;;;;;32.81;23.57;100329.91;4926853;29;20039;-77
2023/09/18 07:53:21;;;;;;;11.38;7.90;;;;;;;32.29;24.07;100338.34;4943321;28;20221;-76
2023/09/18 07:55:55;;;;;;;14.35;8.30;;;;;;;31.71;25.15;100377.59;4923750;29;20052;-76
2023/09/18 07:58:21;;;;;;;11.27;6.22;;;;;;;30.98;26.26;100393.78;4928878;29;21364;-75
2023/09/18 08:00:48;;;;;;;12.90;9.00;;;;;;;30.11;26.68;100376.84;4943768;28;20387;-77
2023/09/18 08:03:14;;;;;;;14.60;6.85;;;;;;;29.53;27.62;100396.63;4940836;28;20426;-76
2023/09/18 08:05:40;;;;;;;17.60;10.45;;;;;;;28.93;28.46;100375.34;4943713;28;20044;-75
2023/09/18 08:08:06;;;;;;;6.97;5.90;;;;;;;28.61;28.80;100410.75;4943054;28;20040;-76
2023/09/18 08:10:32;;;;;;;8.98;6.32;;;;;;;28.38;29.52;100382.09;4927030;29;20047;-75
2023/09/18 08:12:58;;;;;;;10.65;6.45;;;;;;;28.95;29.54;100390.31;4943656;28;20127;-76
2023/09/18 08:15:24;;;;;;;12.57;6.97;;;;;;;29.71;28.90;100384.41;4926741;29;20047;-73
2023/09/18 08:17:50;;;;;;;14.10;11.95;;;;;;;30.11;28.61;100382.19;4927819;29;20035;-76
2023/09/18 08:20:17;;;;;;;13.00;6.78;;;;;;;30.11;28.27;100379.50;4928799;29;20632;-75
2023/09/18 08:22:48;;;;;;;6.70;5.70;;;;;;;29.98;28.57;100347.47;4942717;28;20046;-77
2023/09/18 08:25:24;;;;;;;10.55;7.05;;;;;;;31.58;27.75;100379.66;4944413;28;20048;-76
2023/09/18 08:27:54;;;;;;;8.80;6.53;;;;;;;32.52;26.12;100295.81;4908999;29;20541;-74
2023/09/18 08:30:24;;;;;;;10.15;7.30;;;;;;;34.26;25.20;100351.06;4930893;29;20664;-76
2023/09/18 08:32:53;;;;;;;12.45;7.97;;;;;;;35.87;23.57;100326.28;4946319;28;20043;-75
2023/09/18 08:35:29;;;;;;;11.85;7.30;;;;;;;37.94;22.02;100377.47;4927487;29;20052;-74
2023/09/18 08:37:57;;;;;;;10.52;8.23;;;;;;;38.85;20.92;100327.84;4908412;29;20047;-75
2023/09/18 08:40:25;;;;;;;9.90;7.90;;;;;;;39.80;20.20;100382.47;4907858;29;20066;-75
2023/09/18 08:42:53;;;;;;;11.15;7.88;;;;;;;40.68;18.92;100348.75;4931639;29;20047;-76
2023/09/18 08:45:31;;;;;;;11.15;7.80;;;;;;;41.88;17.88;100369.47;4946452;28;20505;-77
2023/09/18 08:47:58;;;;;;;10.85;7.30;;;;;;;42.88;17.31;100359.66;4947335;28;20090;-76
2023/09/18 08:50:25;;;;;;;8.18;6.72;;;;;;;42.60;16.85;100352.53;4930781;29;20070;-75
2023/09/18 08:52:52;;;;;;;15.63;6.88;;;;;;;41.52;16.84;100367.91;4928887;29;20413;-76
2023/09/18 08:55:18;;;;;;;9.55;6.63;;;;;;;39.64;17.75;100371.75;4945379;28;20047;-75
2023/09/18 08:57:46;;;;;;;9.88;7.50;;;;;;;37.83;19.11;100354.25;4929672;29;20047;-78
2023/09/18 09:00:16;;;;;;;10.65;7.60;;;;;;;36.53;20.28;100356.16;4944945;28;20039;-75
2023/09/18 09:02:45;;;;;;;;;;;;;;;35.56;20.95;100372.91;4930416;29;20466;-75
2023/09/18 09:05:11;;;;;;;8.43;6.00;;;;;;;34.50;21.90;100356.72;4946080;28;20381;-77
2023/09/18 09:07:37;;;;;;;11.43;6.40;;;;;;;33.49;22.82;100373.81;4930920;29;20599;-76
2023/09/18 09:10:04;;;;;;;12.27;5.85;;;;;;;32.62;23.32;100365.78;4945184;28;20044;-76
2023/09/18 09:12:51;;;;;;;11.48;5.93;;;;;;;32.45;24.03;100370.91;4928849;29;20427;-75
2023/09/18 09:15:17;;;;;;;11.85;5.63;;;;;;;32.27;24.78;100380.72;4929387;29;20039;-75
2023/09/18 09:17:46;;;;;;;8.98;5.90;;;;;;;31.96;25.34;100376.25;4935052;29;20043;-76
2023/09/18 09:20:14;;;;;;;15.23;6.05;;;;;;;31.43;25.61;100380.03;4945558;28;20087;-75
2023/09/18 09:22:41;;;;;;;10.10;6.22;;;;;;;30.95;25.96;100387.69;4930110;29;20078;-74
2023/09/18 09:25:20;;;;;;;9.02;6.57;;;;;;;30.72;26.90;100383.44;4944932;28;20178;-75
2023/09/18 09:27:46;;;;;;;11.98;6.03;;;;;;;30.61;26.46;100362.88;4943883;28;20051;-73
2023/09/18 09:30:19;;;;;;;9.75;5.72;;;;;;;30.57;26.96;100362.25;4908015;29;20043;-75
2023/09/18 09:32:49;;;;;;;7.70;5.95;;;;;;;30.09;27.11;100368.88;4929293;29;20498;-75
2023/09/18 09:35:21;;;;;;;10.43;6.15;;;;;;;29.55;27.66;100344.63;4945556;28;20494;-75
2023/09/18 09:37:50;;;;;;;10.82;6.03;;;;;;;29.34;28.44;100352.50;4944651;28;20478;-75
2023/09/18 09:40:18;;;;;;;14.07;6.38;;;;;;;29.00;29.07;100379.28;4928017;29;20059;-75
2023/09/18 09:42:46;;;;;;;13.68;6.32;;;;;;;28.54;29.64;100370.22;4934594;29;20050;-76
2023/09/18 09:45:18;;;;;;;12.38;6.13;;;;;;;28.26;29.99;100378.50;4942967;28;20062;-77
2023/09/18 09:47:44;;;;;;;11.02;5.65;;;;;;;27.71;31.00;100377.16;4941644;28;20058;-74
2023/09/18 09:50:18;;;;;;;11.30;6.30;;;;;;;27.53;30.96;100395.38;4930566;29;20043;-76
2023/09/18 09:52:49;;;;;;;9.45;6.07;;;;;;;27.02;31.59;100352.53;4927968;29;20132;-76
2023/09/18 09:55:28;;;;;;;8.90;6.20;;;;;;;27.08;31.89;100391.31;4943194;28;20039;-74
2023/09/18 09:57:57;;;;;;;8.70;6.30;;;;;;;26.66;32.42;100377.25;4929977;29;20208;-74
2023/09/18 10:00:45;;;;;;;10.25;6.30;;;;;;;26.51;32.82;100382.63;4928242;29;20146;-73
2023/09/18 10:03:13;;;;;;;10.82;6.05;;;;;;;26.15;33.59;100408.09;4945792;28;20438;-74
2023/09/18 10:05:44;;;;;;;10.10;5.78;;;;;;;25.64;33.76;100413.97;4923273;29;20762;-73
2023/09/18 10:08:22;;;;;;;11.98;5.78;;;;;;;25.35;34.75;100409.47;4927410;29;20126;-75
2023/09/18 10:10:54;;;;;;;8.98;5.63;;;;;;;25.16;34.91;100409.72;4939040;28;20048;-75
2023/09/18 10:13:36;;;;;;;7.05;5.20;;;;;;;24.92;35.68;100418.22;4928751;29;20098;-75
2023/09/18 10:16:06;;;;;;;10.80;5.57;;;;;;;24.70;35.75;100392.03;4928461;29;20151;-76
2023/09/18 10:18:44;;;;;;;9.43;5.18;;;;;;;24.51;36.14;100393.06;4928943;29;20130;-75
2023/09/18 10:21:35;;;;;;;8.23;5.28;;;;;;;24.48;36.85;100403.91;4944125;28;20044;-74
2023/09/18 10:24:29;;;;;;;8.23;5.28;;;;;;;24.39;36.95;100376.97;4934510;29;20044;-76
2023/09/18 10:26:56;;;;;;;8.60;5.43;;;;;;;24.58;37.02;100388.28;4927140;29;20031;-75
2023/09/18 10:29:24;;;;;;;9.70;5.00;;;;;;;24.79;36.47;100383.50;4926707;29;20146;-74
2023/09/18 10:31:52;;;;;;;9.68;5.50;;;;;;;24.74;36.29;100409.53;4943769;28;20450;-73
2023/09/18 10:34:18;;;;;;;11.13;5.43;;;;;;;24.63;37.06;100407.47;4927089;29;20071;-73
2023/09/18 10:36:49;;;;;;;8.00;5.47;;;;;;;24.59;37.22;100399.75;4941736;28;20051;-75
2023/09/18 10:39:19;;;;;;;9.00;5.63;;;;;;;24.50;37.13;100398.50;4927363;29;20130;-75
2023/09/18 10:41:51;;;;;;;11.15;5.20;;;;;;;24.41;37.52;100391.91;4942374;28;20043;-75
2023/09/18 10:44:18;;;;;;;7.50;4.90;;;;;;;24.25;37.67;100375.13;4926059;29;20048;-76
2023/09/18 10:46:52;;;;;;;8.65;5.45;;;;;;;23.87;37.70;100331.13;4940062;28;20062;-75
2023/09/18 10:49:19;;;;;;;8.75;5.53;;;;;;;23.87;37.51;100365.69;4928549;29;20050;-75
2023/09/18 10:51:52;;;;;;;8.90;5.22;;;;;;;23.78;38.40;100390.97;4942331;28;20046;-76
2023/09/18 10:54:24;;;;;;;9.73;4.95;;;;;;;23.55;38.47;100381.56;4940106;28;20047;-75
2023/09/18 10:56:50;;;;;;;;;;;;;;;23.59;38.86;100410.56;4927771;29;20040;-74
2023/09/18 10:59:17;;;;;;;8.05;5.43;;;;;;;23.46;38.89;100397.06;4940389;28;20011;-75
2023/09/18 11:01:44;;;;;;;8.52;5.20;;;;;;;23.19;39.56;100377.25;4941731;28;20039;-73
2023/09/18 11:04:10;;;;;;;9.38;5.00;;;;;;;23.16;39.84;100387.09;4925578;29;20147;-77
2023/09/18 11:06:55;;;;;;;8.60;5.13;;;;;;;23.22;40.51;100406.34;4940754;28;20035;-76
2023/09/18 11:09:24;;;;;;;12.25;4.97;;;;;;;23.21;40.43;100405.47;4928068;29;20031;-78
2023/09/18 11:11:57;;;;;;;7.40;4.97;;;;;;;23.12;40.53;100372.25;4928593;29;20103;-73
2023/09/18 11:14:44;;;;;;;9.18;5.53;;;;;;;23.38;41.11;100396.63;4940985;28;20050;-73
2023/09/18 11:17:31;;;;;;;8.10;5.68;;;;;;;23.50;40.83;100400.41;4924567;29;20036;-75
2023/09/18 11:20:14;;;;;;;8.20;5.35;;;;;;;23.54;40.66;100406.41;4940923;28;20050;-74
2023/09/18 11:22:54;;;;;;;11.52;5.47;;;;;;;23.35;40.75;100391.47;4942234;28;21447;-76
2023/09/18 11:25:37;;;;;;;11.05;5.45;;;;;;;23.54;40.95;100404.63;4940989;28;20043;-74